Startpagina
METAR-TAF:

METAR-TAF

Vliegvelden :

Internationale luchthaven van Cluj-Napoca

Cluj-Napoca, Roemenië

breedte: 46-47N, lengte: 023-34E, hoogte: 410 m

Actueel weer

Dit bericht is 29 minuten geleden gemaakt, om 22:00 UTC
Wind 5 kt uit het westen
Temperatuur 17°C
Vochtigheid 77%
Druk 1018 hPa
Zicht 10 km of meer
geen wolken onder 1500 m en geen cumulonimbus

METAR: LRCL 232200Z 28005KT CAVOK 17/13 Q1018

Tijdstip: 01:29 (22:29 UTC)

Verwachting

Dit bericht is 2 uur en het 29 minuten geleden gemaakt, om 20:00 UTC
Verwachting geldig van 23 om 21 UTC tot 24 om 06 UTC
Wind 4 kt uit variabele richting
Zicht 10 km of meer
geen wolken onder 1500 m en geen cumulonimbus
Kans 30% :
Tijdelijke
van 24 om 02 UTC tot 24 om 05 UTC
Zicht: 3000 m
nevel

TAF: LRCL 232000Z 2321/2406 VRB04KT CAVOK PROB30 TEMPO 2402/2405 3000 BR

Waarnemingen en weersverwachtingen van meer dan 4000 vliegvelden (METAR en TAF).

De beschikbare stations zijn de gele en rode punten op de kaart.

Ga met uw muis naar het station om de naam te zien.

Klik dan om waarnemingen en weersverwachtingen te zien.

kaart wijzigen: klik op de groene knoppen met een zwart kruis om in te zoomen, op de groene knop met een streepje om uit te zoomen of op de groene pijlen voor aangrenzende kaarten.


METAR-TAF: